Accueil
METAR-TAF:

METAR-TAF

Aéroports :

Aéroport de Trévise

Trévise, Italie

latitude: 45-39N, longitude: 012-11E, altitude: 18 m

Observation

Le bulletin a été fait il y a 22 minutes, à 23:20 UTC
Vent 4 kt de nord-est
Température 19°C
Humidité 94%
Pression 1007 hPa
Visibilité 10 km ou plus

METAR: LIPH 062320Z AUTO 04004KT 9999 FEW053/// 19/18 Q1007

Heure: 01:42 (23:42 UTC)

Prévision

Le bulletin a été fait il y a 42 minutes, à 23:00 UTC
Prévision valable du 07 à 00 UTC au 07 à 24 UTC
Vent 5 kt de direction variable
Visibilité 10 km ou plus
Nuages épars à une hauteur de 3000 ft
Temporairement
du 07 à 10 UTC au 07 à 24 UTC
Visibilité: 4000 m
orage, pluie

TAF: LIPH 062300Z 0700/0724 VRB05KT 9999 SCT030 TEMPO 0710/0724 4000 TSRA

Observations et prévisions météorologiques de plus de 4000 aéroports (messages METAR et TAF).

Les stations disponibles sont représentées par des disques jaunes et rouges sur la carte.

Passer la souris dessus pour voir le nom de la station.

Cliquer dessus pour voir les observations et prévisions météorologiques.

Pour changer de carte: cliquez sur les boutons verts avec une croix noire pour zoomer, sur le bouton vert avec un tiret pour effectuer un zoom arrière, ou sur les flèches vertes pour les cartes adjacentes.


METAR-TAF: